Time;durP1;ratioP1;P1;durP2;ratioP2;P2;SDS_P1;SDS_P2;PMS_P1;PMS_P2;Temp;Humidity;BMP_temperature;BMP_pressure;BME280_temperature;BME280_humidity;BME280_pressure;Samples;Min_cycle;Max_cycle;Signal;HPM_P1;HPM_P2
2022/02/18 00:01:00;;;;;;;18.10;8.60;;;;;;;12.73;45.22;94439.25;4953595;29;20450;-73
2022/02/18 00:03:28;;;;;;;13.60;7.30;;;;;;;12.78;44.97;94435.75;4953339;29;20895;-71
2022/02/18 00:05:55;;;;;;;12.40;6.67;;;;;;;12.85;45.06;94429.09;4953398;29;20864;-72
2022/02/18 00:08:21;;;;;;;9.47;6.20;;;;;;;13.29;44.01;94435.97;4953146;29;20447;-70
2022/02/18 00:10:49;;;;;;;12.23;6.63;;;;;;;13.27;43.75;94432.84;4953677;29;20451;-74
2022/02/18 00:13:18;;;;;;;9.13;6.80;;;;;;;13.69;43.09;94435.41;4953306;29;20494;-73
2022/02/18 00:15:45;;;;;;;11.47;6.33;;;;;;;13.07;44.30;94423.34;4953107;28;20469;-73
2022/02/18 00:18:12;;;;;;;10.53;6.33;;;;;;;13.59;42.91;94427.69;4953834;29;20444;-73
2022/02/18 00:20:39;;;;;;;9.83;6.97;;;;;;;13.55;43.48;94418.78;4953919;29;20451;-73
2022/02/18 00:23:08;;;;;;;12.70;6.93;;;;;;;13.47;43.46;94420.19;4937549;29;21060;-73
2022/02/18 00:25:35;;;;;;;11.70;7.20;;;;;;;13.53;43.57;94426.19;4954161;29;20439;-73
2022/02/18 00:28:06;;;;;;;12.10;7.43;;;;;;;13.63;42.77;94432.06;4953520;29;20439;-72
2022/02/18 00:30:33;;;;;;;11.07;7.20;;;;;;;13.88;42.47;94431.72;4953546;29;20440;-73
2022/02/18 00:33:00;;;;;;;15.37;7.37;;;;;;;13.96;42.11;94414.47;4952437;28;20479;-70
2022/02/18 00:35:27;;;;;;;12.67;7.93;;;;;;;14.08;41.54;94401.66;4951707;29;20451;-73
2022/02/18 00:37:56;;;;;;;13.70;7.30;;;;;;;14.06;41.50;94388.78;4936177;29;20451;-73
2022/02/18 00:40:25;;;;;;;11.40;7.40;;;;;;;14.00;41.91;94407.56;4953703;29;20503;-72
2022/02/18 00:42:54;;;;;;;14.30;7.23;;;;;;;14.21;41.90;94424.63;4954485;29;20438;-72
2022/02/18 00:45:21;;;;;;;11.27;7.60;;;;;;;13.89;41.84;94432.50;4936795;29;20472;-72
2022/02/18 00:47:51;;;;;;;12.10;7.40;;;;;;;14.25;41.62;94418.47;4953102;28;20448;-72
2022/02/18 00:50:19;;;;;;;13.00;8.53;;;;;;;14.12;41.51;94429.75;4955182;29;20435;-73
2022/02/18 00:52:46;;;;;;;19.27;11.87;;;;;;;13.80;42.28;94413.16;4953305;29;20569;-70
2022/02/18 00:55:14;;;;;;;23.90;12.90;;;;;;;13.62;42.26;94445.53;4953072;29;20436;-72
2022/02/18 00:57:42;;;;;;;22.03;12.27;;;;;;;13.67;42.60;94461.25;4953000;29;21036;-73
2022/02/18 01:00:11;;;;;;;22.47;13.20;;;;;;;13.63;42.25;94474.19;4935938;29;20922;-74
2022/02/18 01:02:38;;;;;;;27.83;14.03;;;;;;;13.54;42.10;94475.13;4952937;29;20474;-73
2022/02/18 01:05:06;;;;;;;23.80;14.63;;;;;;;13.46;42.32;94483.66;4935546;29;20477;-71
2022/02/18 01:07:34;;;;;;;25.30;15.30;;;;;;;13.56;42.34;94494.03;4952708;29;20841;-71
2022/02/18 01:10:01;;;;;;;23.13;14.23;;;;;;;13.39;42.56;94486.66;4934789;29;20506;-72
2022/02/18 01:12:27;;;;;;;27.17;15.77;;;;;;;13.43;42.43;94500.03;4952299;29;20773;-71
2022/02/18 01:14:58;;;;;;;23.33;15.07;;;;;;;13.57;42.43;94506.16;4951641;29;20519;-73
2022/02/18 01:17:25;;;;;;;29.20;15.27;;;;;;;13.32;42.73;94493.31;4951747;29;20439;-72
2022/02/18 01:19:52;;;;;;;26.77;14.70;;;;;;;13.25;42.76;94514.69;4952184;29;20948;-72
2022/02/18 01:22:19;;;;;;;17.57;10.83;;;;;;;12.29;43.91;94512.16;4935570;29;20997;-72
2022/02/18 01:24:47;;;;;;;15.63;10.13;;;;;;;12.24;44.50;94535.84;4951190;28;20443;-72
2022/02/18 01:27:14;;;;;;;15.60;9.53;;;;;;;12.42;44.18;94527.31;4952276;29;20442;-71
2022/02/18 01:29:42;;;;;;;18.43;8.60;;;;;;;12.65;43.74;94521.31;4952364;29;20980;-73
2022/02/18 01:32:12;;;;;;;16.03;8.03;;;;;;;12.41;44.16;94528.34;4935553;29;20450;-73
2022/02/18 01:34:40;;;;;;;12.87;7.47;;;;;;;12.84;43.25;94532.72;4934894;29;20907;-70
2022/02/18 01:37:08;;;;;;;10.37;6.47;;;;;;;12.80;42.56;94513.28;4950782;29;20451;-72
2022/02/18 01:39:35;;;;;;;11.73;6.13;;;;;;;13.05;41.70;94526.22;4951996;29;20499;-71
2022/02/18 01:42:02;;;;;;;8.80;5.13;;;;;;;13.18;40.98;94525.56;4935235;29;20443;-72
2022/02/18 01:44:38;;;;;;;9.17;5.30;;;;;;;13.01;41.12;94545.44;4952155;29;20962;-72
2022/02/18 01:47:16;;;;;;;8.50;5.10;;;;;;;13.33;40.37;94555.38;4952226;28;20444;-74
2022/02/18 01:49:45;;;;;;;7.63;4.83;;;;;;;13.25;40.01;94550.75;4934351;28;20455;-72
2022/02/18 01:52:13;;;;;;;11.47;5.10;;;;;;;13.37;40.15;94548.50;4952374;29;21005;-71
2022/02/18 01:54:40;;;;;;;8.13;4.90;;;;;;;13.42;39.14;94561.59;4934945;29;20482;-72
2022/02/18 01:57:08;;;;;;;8.63;5.23;;;;;;;13.55;39.46;94566.19;4951989;28;20455;-71
2022/02/18 01:59:36;;;;;;;11.90;5.40;;;;;;;13.87;38.93;94559.19;4934161;29;20977;-72
2022/02/18 02:02:04;;;;;;;6.60;4.93;;;;;;;13.65;39.04;94568.72;4952069;29;20977;-72
2022/02/18 02:04:32;;;;;;;7.70;5.00;;;;;;;13.87;39.08;94561.84;4951485;29;20451;-72
2022/02/18 02:07:03;;;;;;;13.77;5.20;;;;;;;14.10;38.23;94587.31;4951869;29;20474;-72
2022/02/18 02:09:33;;;;;;;8.60;5.30;;;;;;;14.19;38.23;94582.22;4934208;29;20465;-70
2022/02/18 02:12:00;;;;;;;8.87;5.00;;;;;;;14.16;38.63;94580.94;4936669;28;20497;-73
2022/02/18 02:14:31;;;;;;;10.10;5.17;;;;;;;14.01;38.66;94572.47;4946458;28;20507;-73
2022/02/18 02:16:58;;;;;;;11.03;5.80;;;;;;;14.30;38.16;94583.69;4947248;29;21119;-74
2022/02/18 02:19:27;;;;;;;8.80;5.17;;;;;;;14.26;38.38;94590.56;4930950;29;20488;-71
2022/02/18 02:21:56;;;;;;;8.37;4.90;;;;;;;14.29;38.38;94587.38;4931414;29;20445;-72
2022/02/18 02:24:24;;;;;;;8.87;5.30;;;;;;;14.30;38.26;94593.44;4931199;29;20959;-72
2022/02/18 02:26:52;;;;;;;8.47;5.37;;;;;;;14.16;38.77;94606.50;4930968;29;20449;-72
2022/02/18 02:29:21;;;;;;;8.07;4.73;;;;;;;14.28;38.36;94617.44;4943442;29;20444;-72
2022/02/18 02:31:49;;;;;;;6.33;4.83;;;;;;;14.32;37.89;94610.53;4950308;29;20451;-71
2022/02/18 02:34:16;;;;;;;7.83;5.07;;;;;;;14.19;37.73;94598.03;4949701;29;20487;-73
2022/02/18 02:36:44;;;;;;;9.07;5.27;;;;;;;14.28;37.86;94600.84;4951774;29;20523;-73
2022/02/18 02:39:13;;;;;;;7.37;5.37;;;;;;;14.20;38.17;94612.75;4949717;29;20452;-72
2022/02/18 02:41:41;;;;;;;10.37;5.40;;;;;;;13.77;38.68;94633.06;4950503;29;21045;-72
2022/02/18 02:44:12;;;;;;;9.60;5.67;;;;;;;13.97;37.99;94637.31;4948932;28;20532;-73
2022/02/18 02:46:39;;;;;;;12.27;5.77;;;;;;;14.05;38.55;94641.97;4931408;29;20453;-73
2022/02/18 02:49:21;;;;;;;13.13;5.03;;;;;;;13.45;39.04;94655.81;4931674;29;21028;-72
2022/02/18 02:51:49;;;;;;;10.33;4.93;;;;;;;13.77;38.93;94674.41;4931576;29;20451;-72
2022/02/18 02:54:17;;;;;;;10.30;5.20;;;;;;;13.82;38.77;94663.81;4931631;29;20495;-72
2022/02/18 02:56:46;;;;;;;9.80;5.13;;;;;;;13.91;39.08;94686.63;4930613;29;20444;-73
2022/02/18 02:59:26;;;;;;;7.73;4.87;;;;;;;14.06;39.05;94704.13;4946725;29;20444;-71
2022/02/18 03:01:53;;;;;;;9.73;5.30;;;;;;;13.87;39.48;94711.16;4932207;28;20524;-73
2022/02/18 03:04:21;;;;;;;12.63;5.33;;;;;;;13.89;40.38;94714.31;4930580;29;20432;-71
2022/02/18 03:06:47;;;;;;;10.63;5.53;;;;;;;13.93;41.33;94725.84;4931799;29;20451;-74
2022/02/18 03:09:35;;;;;;;11.80;6.00;;;;;;;13.55;42.22;94729.41;4948340;28;20534;-74
2022/02/18 03:12:08;;;;;;;13.13;6.80;;;;;;;13.68;42.52;94747.19;4934945;29;20470;-74
2022/02/18 03:14:41;;;;;;;17.07;7.10;;;;;;;13.31;44.29;94762.75;4950503;29;20888;-73
2022/02/18 03:17:10;;;;;;;12.90;7.33;;;;;;;13.26;45.22;94768.06;4937134;28;20490;-73
2022/02/18 03:19:38;;;;;;;12.17;6.87;;;;;;;13.34;45.57;94778.78;4938925;29;20530;-72
2022/02/18 03:22:06;;;;;;;11.97;5.97;;;;;;;12.95;47.14;94781.41;4954861;29;20443;-71
2022/02/18 03:24:35;;;;;;;10.07;4.67;;;;;;;12.84;46.94;94802.75;4939164;29;20576;-73
2022/02/18 03:27:03;;;;;;;6.47;3.70;;;;;;;12.52;47.61;94811.03;4939318;29;20467;-74
2022/02/18 03:29:34;;;;;;;7.17;3.03;;;;;;;12.00;48.97;94802.81;4938480;29;20457;-72
2022/02/18 03:32:04;;;;;;;6.97;3.67;;;;;;;12.62;47.81;94790.00;4954447;29;21238;-72
2022/02/18 03:34:31;;;;;;;7.60;3.40;;;;;;;12.82;48.75;94826.69;4939133;29;20491;-73
2022/02/18 03:36:59;;;;;;;3.30;2.47;;;;;;;12.96;48.73;94838.19;4955543;29;20479;-73
2022/02/18 03:39:28;;;;;;;6.27;3.47;;;;;;;12.70;49.12;94841.22;4940695;28;20506;-70
2022/02/18 03:41:58;;;;;;;8.17;3.40;;;;;;;12.69;49.78;94850.94;4954678;29;20440;-72
2022/02/18 03:44:28;;;;;;;10.17;4.37;;;;;;;11.84;51.98;94846.66;4954982;29;20534;-71
2022/02/18 03:47:07;;;;;;;8.17;4.77;;;;;;;11.06;54.62;94839.22;4939040;29;20443;-73
2022/02/18 03:49:34;;;;;;;9.23;5.27;;;;;;;11.08;55.14;94837.94;4955130;29;20538;-72
2022/02/18 03:52:06;;;;;;;8.97;5.13;;;;;;;11.15;55.31;94848.94;4955939;29;20451;-69
2022/02/18 03:54:33;;;;;;;8.80;5.80;;;;;;;11.27;55.42;94837.44;4939938;28;20582;-70
2022/02/18 03:57:00;;;;;;;11.70;6.00;;;;;;;10.79;56.75;94849.91;4956208;28;20443;-71
2022/02/18 03:59:29;;;;;;;9.07;5.53;;;;;;;11.11;56.03;94861.00;4939391;29;20207;-72
2022/02/18 04:01:58;;;;;;;11.80;6.10;;;;;;;11.00;55.95;94872.50;4939550;29;20447;-72
2022/02/18 04:04:25;;;;;;;10.93;6.70;;;;;;;11.20;56.20;94871.78;4955641;29;20207;-72
2022/02/18 04:07:05;;;;;;;11.90;6.57;;;;;;;11.04;56.10;94884.06;4939086;29;20454;-72
2022/02/18 04:09:43;;;;;;;17.80;6.63;;;;;;;11.21;55.62;94879.41;4956310;29;20444;-72
2022/02/18 04:12:18;;;;;;;11.45;5.75;;;;;;;11.17;55.09;94882.78;4937486;29;20207;-71
2022/02/18 04:14:47;;;;;;;10.45;5.90;;;;;;;11.08;55.67;94916.59;4943056;28;20231;-72
2022/02/18 04:17:17;;;;;;;10.32;6.70;;;;;;;10.46;56.46;94923.66;4955702;28;20294;-73
2022/02/18 04:19:50;;;;;;;10.15;6.82;;;;;;;10.56;56.69;94913.25;4954633;28;20298;-73
2022/02/18 04:22:45;;;;;;;8.05;5.85;;;;;;;10.49;56.27;94907.41;4972138;28;20675;-73
2022/02/18 04:25:18;;;;;;;6.30;3.35;;;;;;;9.59;57.00;94912.78;4955629;28;20199;-71
2022/02/18 04:27:55;;;;;;;4.30;2.60;;;;;;;9.79;56.48;94896.44;4973123;28;20188;-73
2022/02/18 04:30:23;;;;;;;4.43;1.92;;;;;;;10.57;53.90;94887.81;4972774;28;20258;-72
2022/02/18 04:32:50;;;;;;;8.73;2.08;;;;;;;9.98;53.56;94855.78;4973419;28;20227;-72
2022/02/18 04:35:18;;;;;;;7.13;1.98;;;;;;;9.88;53.65;94868.78;4973556;28;20227;-72
2022/02/18 04:37:45;;;;;;;2.83;1.85;;;;;;;9.62;52.86;94886.09;4977203;28;20199;-75
2022/02/18 04:40:14;;;;;;;3.13;1.92;;;;;;;10.30;51.50;94853.88;4973682;28;20199;-76
2022/02/18 04:42:43;;;;;;;2.92;1.38;;;;;;;9.72;52.31;94890.63;4973144;28;20203;-73
2022/02/18 04:45:12;;;;;;;1.88;1.50;;;;;;;9.75;51.80;94869.19;4973116;28;20262;-75
2022/02/18 04:47:41;;;;;;;3.55;1.50;;;;;;;9.92;50.95;94875.09;4972752;28;20188;-72
2022/02/18 04:50:09;;;;;;;4.00;1.67;;;;;;;9.65;51.23;94884.84;4973500;28;20212;-73
2022/02/18 04:52:38;;;;;;;2.85;1.65;;;;;;;10.35;49.63;94885.34;4972975;28;20749;-73
2022/02/18 04:55:06;;;;;;;3.55;1.58;;;;;;;10.70;48.63;94898.63;4973138;28;20761;-75
2022/02/18 04:57:36;;;;;;;2.80;1.30;;;;;;;10.74;48.80;94897.06;4972845;28;20587;-72
2022/02/18 05:00:05;;;;;;;2.83;1.45;;;;;;;10.75;47.62;94919.59;4971985;28;20210;-72
2022/02/18 05:02:32;;;;;;;2.13;1.80;;;;;;;10.88;47.09;94915.72;4960851;28;20228;-73
2022/02/18 05:04:59;;;;;;;2.75;1.50;;;;;;;9.61;48.54;94908.09;4953009;28;20207;-74
2022/02/18 05:07:26;;;;;;;2.00;1.30;;;;;;;10.57;46.92;94922.66;4951275;28;20255;-75
2022/02/18 05:09:53;;;;;;;2.30;1.40;;;;;;;10.46;46.43;94933.31;4952233;28;20193;-74
2022/02/18 05:12:19;;;;;;;1.98;1.30;;;;;;;10.48;46.07;94936.47;4951985;28;20243;-74
2022/02/18 05:14:48;;;;;;;4.35;1.40;;;;;;;10.24;46.43;94962.25;4951965;28;20246;-72
2022/02/18 05:17:15;;;;;;;3.65;1.42;;;;;;;10.49;45.81;94965.03;4955273;28;20195;-73
2022/02/18 05:19:42;;;;;;;2.13;1.42;;;;;;;11.09;44.22;94975.84;4961950;28;20658;-73
2022/02/18 05:22:09;;;;;;;3.08;1.20;;;;;;;10.60;45.08;94976.41;4952841;29;20192;-71
2022/02/18 05:24:37;;;;;;;2.25;1.40;;;;;;;10.65;44.64;94985.09;4959328;29;20200;-71
2022/02/18 05:27:05;;;;;;;2.63;1.35;;;;;;;10.54;44.47;94988.69;4959508;29;20304;-71
2022/02/18 05:29:33;;;;;;;3.38;1.40;;;;;;;11.12;43.72;94988.47;4960973;29;20196;-71
2022/02/18 05:32:00;;;;;;;1.63;1.23;;;;;;;10.90;43.61;95003.56;4960409;28;20234;-72
2022/02/18 05:34:28;;;;;;;2.80;1.60;;;;;;;11.06;43.16;95002.59;4958105;28;20215;-71
2022/02/18 05:36:55;;;;;;;2.28;1.20;;;;;;;10.52;43.24;94998.63;4977849;28;20191;-71
2022/02/18 05:39:23;;;;;;;3.78;1.60;;;;;;;10.54;45.12;94983.44;4976735;28;20199;-71
2022/02/18 05:41:50;;;;;;;2.75;1.23;;;;;;;10.50;43.11;94987.59;4952659;28;20231;-72
2022/02/18 05:44:18;;;;;;;2.60;1.45;;;;;;;10.30;43.19;95007.59;4950536;29;20196;-71
2022/02/18 05:46:45;;;;;;;2.85;1.20;;;;;;;10.18;42.99;95000.72;4951919;28;20219;-71
2022/02/18 05:49:12;;;;;;;1.75;1.00;;;;;;;10.80;42.10;95008.72;4951422;29;20202;-72
2022/02/18 05:51:39;;;;;;;10.15;6.53;;;;;;;10.58;42.40;95015.97;4951042;28;20203;-70
2022/02/18 05:54:06;;;;;;;8.23;4.57;;;;;;;10.22;42.75;95008.09;4955120;28;20242;-70
2022/02/18 05:56:32;;;;;;;6.20;2.97;;;;;;;10.85;41.28;95010.59;4958127;28;20195;-68
2022/02/18 05:59:02;;;;;;;2.63;1.20;;;;;;;10.70;40.91;94998.19;4949792;29;20188;-72
2022/02/18 06:01:29;;;;;;;2.25;1.40;;;;;;;10.75;44.51;94995.59;4950270;29;20311;-73
2022/02/18 06:03:56;;;;;;;25.70;19.57;;;;;;;10.08;42.39;95011.09;4950818;29;20757;-71
2022/02/18 06:06:23;;;;;;;7.15;3.58;;;;;;;10.30;41.35;95010.22;4951966;29;20815;-75
2022/02/18 06:08:50;;;;;;;2.28;1.10;;;;;;;10.78;40.81;95010.84;4951851;29;20200;-72
2022/02/18 06:11:20;;;;;;;4.50;1.48;;;;;;;10.65;40.49;95027.00;4951628;28;20204;-72
2022/02/18 06:13:47;;;;;;;2.45;1.15;;;;;;;10.53;40.17;95038.72;4951549;29;20661;-73
2022/02/18 06:16:14;;;;;;;5.45;1.35;;;;;;;10.28;40.95;95041.09;4952941;29;20203;-72
2022/02/18 06:18:41;;;;;;;2.80;1.20;;;;;;;10.01;40.48;95035.88;4947871;28;20289;-74
2022/02/18 06:21:08;;;;;;;2.63;1.17;;;;;;;10.56;40.09;95044.25;4972259;28;20195;-72
2022/02/18 06:23:35;;;;;;;5.45;1.70;;;;;;;10.67;40.01;95032.78;4970766;28;20199;-72
2022/02/18 06:26:02;;;;;;;1.52;0.93;;;;;;;10.55;39.14;95050.50;4971446;28;20199;-73
2022/02/18 06:28:29;;;;;;;3.58;1.40;;;;;;;11.17;38.62;95051.44;4971355;28;20697;-76
2022/02/18 06:30:55;;;;;;;5.75;1.27;;;;;;;11.31;38.50;95056.22;4975816;28;20592;-70
2022/02/18 06:33:22;;;;;;;2.40;1.20;;;;;;;11.08;38.65;95060.81;4971736;28;20203;-71
2022/02/18 06:35:49;;;;;;;2.42;1.20;;;;;;;10.58;38.53;95062.31;4971401;28;20310;-74
2022/02/18 06:38:16;;;;;;;4.03;1.30;;;;;;;11.06;38.37;95062.91;4970206;28;20188;-70
2022/02/18 06:40:46;;;;;;;2.92;1.52;;;;;;;10.82;38.42;95059.06;4969339;28;20229;-75
2022/02/18 06:43:13;;;;;;;2.30;1.00;;;;;;;10.46;38.69;95054.63;4969063;28;20283;-74
2022/02/18 06:45:40;;;;;;;2.33;1.20;;;;;;;11.17;37.40;95054.03;4971080;28;20443;-72
2022/02/18 06:48:10;;;;;;;2.47;0.83;;;;;;;9.86;39.01;95064.50;4970773;28;20661;-74
2022/02/18 06:50:40;;;;;;;2.20;1.05;;;;;;;10.45;38.07;95047.03;4969741;28;20442;-75
2022/02/18 06:53:07;;;;;;;2.65;1.10;;;;;;;10.54;37.83;95082.19;4970998;28;20701;-71
2022/02/18 06:55:34;;;;;;;5.85;1.20;;;;;;;10.35;38.19;95084.41;4970133;28;20635;-72
2022/02/18 06:58:01;;;;;;;2.10;1.20;;;;;;;11.02;37.18;95100.38;4970402;28;20218;-73
2022/02/18 07:00:28;;;;;;;3.33;1.27;;;;;;;10.90;36.94;95087.44;4970172;28;20562;-72
2022/02/18 07:02:55;;;;;;;2.83;1.07;;;;;;;10.95;36.75;95079.63;4971038;28;20215;-76
2022/02/18 07:05:23;;;;;;;3.13;1.30;;;;;;;10.67;37.61;95103.53;4970607;28;20561;-73
2022/02/18 07:07:50;;;;;;;3.63;1.10;;;;;;;10.42;37.70;95111.16;4970560;28;20278;-72
2022/02/18 07:10:16;;;;;;;3.63;1.10;;;;;;;11.00;36.63;95092.75;4969640;28;20199;-73
2022/02/18 07:12:43;;;;;;;3.25;1.23;;;;;;;11.28;36.57;95109.97;4970047;28;20206;-71
2022/02/18 07:15:11;;;;;;;3.10;1.17;;;;;;;10.97;37.20;95092.47;4970006;28;20335;-73
2022/02/18 07:17:39;;;;;;;2.70;1.15;;;;;;;10.03;39.29;95112.34;4970854;28;20203;-72
2022/02/18 07:20:08;;;;;;;5.90;1.80;;;;;;;11.40;37.30;95091.41;4970488;28;20257;-72
2022/02/18 07:22:37;;;;;;;3.03;1.50;;;;;;;10.96;38.21;95094.31;4969966;28;20529;-71
2022/02/18 07:25:11;;;;;;;5.70;1.87;;;;;;;12.10;37.46;95100.34;4952990;28;20505;-69
2022/02/18 07:27:38;;;;;;;4.30;1.67;;;;;;;11.88;37.31;95067.47;4970416;28;20438;-72
2022/02/18 07:30:08;;;;;;;4.93;1.50;;;;;;;11.69;37.43;95084.75;4971254;28;20441;-73
2022/02/18 07:32:34;;;;;;;4.35;1.70;;;;;;;11.55;38.50;95089.63;4970015;28;20445;-76
2022/02/18 07:35:02;;;;;;;8.05;1.60;;;;;;;11.97;37.67;95082.47;4953026;28;20235;-70
2022/02/18 07:37:29;;;;;;;3.83;1.63;;;;;;;12.49;37.36;95079.66;4970237;28;20210;-73
2022/02/18 07:39:55;;;;;;;5.63;1.57;;;;;;;12.14;37.56;95071.72;4970046;28;20506;-73
2022/02/18 07:42:22;;;;;;;3.13;1.40;;;;;;;12.22;36.51;95074.63;4971505;28;20447;-74
2022/02/18 07:44:49;;;;;;;17.77;1.43;;;;;;;11.19;37.86;95080.00;4972953;28;20450;-71
2022/02/18 07:47:16;;;;;;;6.77;1.30;;;;;;;11.47;37.32;95089.34;4970991;28;20554;-71
2022/02/18 07:49:51;;;;;;;5.97;1.30;;;;;;;11.95;35.96;95099.53;4970418;28;20445;-69
2022/02/18 07:52:20;;;;;;;4.97;1.70;;;;;;;12.00;36.48;95107.44;4971627;28;20555;-69
2022/02/18 07:54:48;;;;;;;5.43;1.50;;;;;;;12.41;35.98;95097.78;4969985;28;20973;-75
2022/02/18 07:57:15;;;;;;;3.30;1.10;;;;;;;12.15;35.85;95110.09;4973669;28;20494;-72
2022/02/18 07:59:42;;;;;;;5.77;1.67;;;;;;;12.50;36.13;95112.75;4973319;28;20442;-76
2022/02/18 08:02:09;;;;;;;5.63;1.50;;;;;;;11.90;36.90;95123.94;4973160;28;20454;-77
2022/02/18 08:04:39;;;;;;;4.37;1.33;;;;;;;11.62;37.21;95110.41;4973671;28;20984;-73
2022/02/18 08:07:13;;;;;;;7.87;1.73;;;;;;;11.73;36.69;95097.09;4974335;28;20448;-72
2022/02/18 08:09:39;;;;;;;3.60;1.23;;;;;;;11.05;37.30;95095.41;4973536;28;20821;-72
2022/02/18 08:12:08;;;;;;;3.53;1.40;;;;;;;11.71;37.35;95091.31;4973338;28;20438;-73
2022/02/18 08:14:35;;;;;;;3.20;1.10;;;;;;;11.76;36.66;95070.34;4973360;28;20517;-70
2022/02/18 08:17:02;;;;;;;5.50;1.33;;;;;;;12.18;35.74;95075.41;4973691;28;20439;-74
2022/02/18 08:19:29;;;;;;;5.67;1.60;;;;;;;12.34;35.82;95084.91;4972974;28;20442;-72
2022/02/18 08:21:56;;;;;;;8.60;1.60;;;;;;;11.97;36.35;95071.19;4975210;28;20502;-73
2022/02/18 08:24:23;;;;;;;4.30;1.30;;;;;;;11.27;36.39;95091.88;4975821;28;20454;-70
2022/02/18 08:26:52;;;;;;;3.37;1.20;;;;;;;12.20;35.03;95075.94;4972970;28;20454;-73
2022/02/18 08:29:23;;;;;;;4.87;1.97;;;;;;;12.67;34.56;95071.25;4972606;28;20454;-71
2022/02/18 08:31:54;;;;;;;9.30;1.60;;;;;;;12.56;34.28;95082.03;4973104;28;20465;-72
2022/02/18 08:34:22;;;;;;;4.23;1.43;;;;;;;12.12;35.20;95100.88;4972713;28;20446;-73
2022/02/18 08:36:49;;;;;;;5.10;1.43;;;;;;;12.42;35.21;95100.16;4972970;28;21043;-71
2022/02/18 08:39:17;;;;;;;5.00;1.50;;;;;;;12.35;34.23;95083.88;4972769;28;20442;-71
2022/02/18 08:41:44;;;;;;;6.80;1.77;;;;;;;13.99;32.21;95088.31;4972890;28;20443;-72
2022/02/18 08:44:14;;;;;;;3.90;1.70;;;;;;;13.94;32.08;95086.47;4972258;28;20446;-71
2022/02/18 08:46:42;;;;;;;5.80;1.53;;;;;;;12.81;33.06;95103.84;4973200;28;20446;-71
2022/02/18 08:49:10;;;;;;;4.80;1.40;;;;;;;13.62;32.68;95088.72;4972389;28;21016;-73
2022/02/18 08:51:39;;;;;;;7.83;1.80;;;;;;;13.92;32.14;95093.09;4973078;28;20449;-72
2022/02/18 08:54:07;;;;;;;6.30;1.80;;;;;;;13.47;32.91;95086.13;4971499;28;20442;-70
2022/02/18 08:56:34;;;;;;;6.33;1.77;;;;;;;14.01;31.72;95102.00;4972755;28;20478;-72
2022/02/18 08:59:04;;;;;;;5.53;1.80;;;;;;;14.33;31.63;95086.53;4973465;28;20453;-73
2022/02/18 09:01:31;;;;;;;4.40;1.50;;;;;;;13.72;32.18;95082.63;4973165;28;20812;-71
2022/02/18 09:03:58;;;;;;;6.63;1.63;;;;;;;13.23;32.95;95094.91;4972901;28;20533;-74
2022/02/18 09:06:25;;;;;;;7.23;1.73;;;;;;;12.69;33.10;95086.75;4974568;28;20825;-73
2022/02/18 09:08:52;;;;;;;5.13;1.47;;;;;;;13.19;32.46;95105.94;4971834;28;20945;-71
2022/02/18 09:11:20;;;;;;;4.50;1.47;;;;;;;13.03;32.54;95096.50;4972204;28;20450;-69
2022/02/18 09:13:47;;;;;;;5.60;1.73;;;;;;;13.52;31.96;95077.44;4971153;28;20896;-75
2022/02/18 09:16:15;;;;;;;7.00;1.43;;;;;;;11.93;33.01;95117.38;4971931;28;20483;-72
2022/02/18 09:19:02;;;;;;;3.50;1.53;;;;;;;12.97;32.54;95094.88;4971482;28;20456;-71
2022/02/18 09:21:29;;;;;;;8.57;1.50;;;;;;;12.31;33.00;95085.44;4955161;28;20446;-74
2022/02/18 09:23:59;;;;;;;4.67;1.63;;;;;;;12.95;32.54;95085.69;4972070;28;20553;-72
2022/02/18 09:26:27;;;;;;;7.13;1.70;;;;;;;14.04;31.35;95085.63;4972199;28;20443;-71
2022/02/18 09:28:59;;;;;;;6.47;1.60;;;;;;;13.62;30.99;95090.56;4971432;28;20528;-73
2022/02/18 09:31:25;;;;;;;9.07;2.00;;;;;;;13.23;31.06;95096.47;4972000;28;20950;-72
2022/02/18 09:33:53;;;;;;;5.97;1.80;;;;;;;13.52;30.14;95077.44;4971637;28;20509;-72
2022/02/18 09:36:20;;;;;;;5.53;1.77;;;;;;;13.66;30.33;95075.81;4971635;28;20482;-75
2022/02/18 09:38:47;;;;;;;5.53;1.57;;;;;;;14.19;29.45;95082.91;4971325;28;20439;-70
2022/02/18 09:41:14;;;;;;;7.57;1.50;;;;;;;13.39;29.69;95070.13;4972270;28;20435;-70
2022/02/18 09:43:41;;;;;;;4.77;1.50;;;;;;;14.17;29.80;95077.94;4971750;28;20438;-74
2022/02/18 09:46:10;;;;;;;6.27;1.43;;;;;;;14.34;29.04;95080.22;4971647;28;20501;-73
2022/02/18 09:48:38;;;;;;;5.57;1.73;;;;;;;15.04;28.90;95084.94;4971015;28;20493;-72
2022/02/18 09:51:07;;;;;;;4.73;1.30;;;;;;;13.94;29.11;95096.22;4971670;28;20434;-71
2022/02/18 09:53:35;;;;;;;6.03;2.07;;;;;;;15.30;28.82;95082.84;4971309;28;20446;-71
2022/02/18 09:56:06;;;;;;;7.37;2.30;;;;;;;16.14;27.30;95088.22;4972002;28;20488;-72
2022/02/18 09:58:35;;;;;;;4.10;1.67;;;;;;;15.80;26.39;95069.06;4970809;28;20438;-75
2022/02/18 10:01:02;;;;;;;3.40;1.23;;;;;;;15.48;27.40;95099.84;4970161;28;20917;-69
2022/02/18 10:03:30;;;;;;;9.57;1.80;;;;;;;14.87;27.30;95089.06;4971017;28;20446;-69
2022/02/18 10:05:58;;;;;;;8.07;1.80;;;;;;;15.06;27.62;95074.88;4970433;28;20434;-76
2022/02/18 10:08:26;;;;;;;3.60;1.53;;;;;;;15.82;27.16;95089.97;4970854;28;20456;-74
2022/02/18 10:11:01;;;;;;;5.40;1.60;;;;;;;16.79;24.89;95070.59;4970964;28;20447;-71
2022/02/18 10:13:34;;;;;;;3.93;1.50;;;;;;;16.64;25.37;95086.72;4970520;28;21008;-71
2022/02/18 10:16:12;;;;;;;4.97;1.70;;;;;;;15.44;26.16;95081.13;4956323;28;21032;-70
2022/02/18 10:18:50;;;;;;;6.10;1.77;;;;;;;15.32;25.98;95064.06;4970345;28;20481;-73
2022/02/18 10:21:24;;;;;;;7.87;1.57;;;;;;;12.90;28.49;95075.94;4953776;28;20900;-71
2022/02/18 10:24:12;;;;;;;10.17;1.57;;;;;;;14.32;27.01;95045.44;4971065;28;20957;-72
2022/02/18 10:26:42;;;;;;;3.47;1.77;;;;;;;14.74;25.71;95058.81;4971306;28;20446;-72
2022/02/18 10:29:30;;;;;;;9.87;2.03;;;;;;;14.57;26.14;95053.16;4953291;28;20446;-70
2022/02/18 10:32:12;;;;;;;3.70;1.30;;;;;;;15.00;25.95;95052.25;4971125;28;20439;-75
2022/02/18 10:34:59;;;;;;;5.33;1.50;;;;;;;15.17;26.32;95044.69;4970682;28;20446;-71
2022/02/18 10:37:30;;;;;;;4.63;1.37;;;;;;;14.40;26.63;95058.03;4970848;28;20442;-70
2022/02/18 10:40:13;;;;;;;4.33;1.17;;;;;;;14.18;26.04;95058.41;4970635;28;20506;-73
2022/02/18 10:42:45;;;;;;;3.80;1.40;;;;;;;14.60;25.56;95057.88;4970558;28;20438;-72
2022/02/18 10:45:16;;;;;;;5.97;1.30;;;;;;;14.90;25.18;95060.25;4953786;28;20446;-74
2022/02/18 10:47:45;;;;;;;7.43;1.70;;;;;;;14.24;26.04;95052.03;4971834;28;20490;-73
2022/02/18 10:50:23;;;;;;;4.40;1.50;;;;;;;14.55;24.83;95047.38;4970502;28;20991;-70
2022/02/18 10:53:11;;;;;;;4.80;1.20;;;;;;;14.45;24.71;95050.06;4970968;28;20995;-75
2022/02/18 10:55:52;;;;;;;5.47;1.07;;;;;;;14.97;24.22;95047.53;4970465;28;20510;-71
2022/02/18 10:58:20;;;;;;;11.93;1.23;;;;;;;14.16;24.32;95041.28;4970503;28;20481;-72
2022/02/18 11:01:04;;;;;;;3.90;1.37;;;;;;;14.48;24.64;95044.25;4971160;28;20442;-72
2022/02/18 11:03:31;;;;;;;6.80;1.53;;;;;;;15.20;24.34;95044.13;4970317;28;20434;-70
2022/02/18 11:06:21;;;;;;;10.53;1.37;;;;;;;15.40;24.86;95044.97;4969584;28;20435;-70
2022/02/18 11:09:01;;;;;;;6.50;1.30;;;;;;;15.93;24.34;95054.41;4970154;28;20443;-71
2022/02/18 11:11:45;;;;;;;13.43;1.83;;;;;;;15.12;24.31;95034.19;4971540;28;20961;-69
2022/02/18 11:14:15;;;;;;;15.77;1.97;;;;;;;15.10;24.54;95036.31;4970501;28;20650;-72
2022/02/18 11:16:52;;;;;;;6.73;1.53;;;;;;;15.01;24.64;95042.47;4970481;28;21347;-72
2022/02/18 11:19:20;;;;;;;3.33;1.20;;;;;;;15.25;24.44;95016.91;4970895;28;20438;-73
2022/02/18 11:22:07;;;;;;;6.13;1.37;;;;;;;14.45;24.82;95034.25;4970450;28;20959;-71
2022/02/18 11:24:34;;;;;;;5.83;1.43;;;;;;;14.83;24.55;95030.78;4970616;28;20442;-70
2022/02/18 11:27:03;;;;;;;4.93;1.60;;;;;;;15.12;24.56;95033.41;4971206;28;20442;-71
2022/02/18 11:29:31;;;;;;;5.00;1.00;;;;;;;14.60;24.59;95030.69;4970321;28;20446;-75
2022/02/18 11:32:03;;;;;;;3.03;1.33;;;;;;;15.12;25.15;95013.06;4974162;28;20501;-72
2022/02/18 11:34:41;;;;;;;3.27;1.00;;;;;;;15.25;23.99;95022.94;4974441;28;20446;-69
2022/02/18 11:37:43;;;;;;;5.40;1.33;;;;;;;15.03;24.37;95035.06;4974469;28;20469;-72
2022/02/18 11:40:20;;;;;;;7.57;1.10;;;;;;;15.05;24.28;95023.16;4894808;29;20934;-72
2022/02/18 11:43:13;;;;;;;2.30;1.27;;;;;;;15.37;23.81;95024.41;4946710;29;21029;-72